M I D A S
Marine Information and Data Acquisition System
Tripno 1871 of the Zeeleeuw from 2010-04-29 06:50:12 to 2010-04-29 15:24:54
Back to CruiseResearch ActivitiesStationsMapUnderway DataData graphs

EquipmentUnitsComment
TimeDGPSUTC
LatitudeDGPSDM.mWGS84
LongitudeDGPSDM.mWGS84
HeadingGyrodeg 
SOGDGPSknotsSpeed over ground
COGDGPSdegCourse over ground
DepthEcho soundermeters200 kHz
Missing or incorrect values are displayed as -999
Navigation data collected by the RV Zeeleeuw from 2010-04-29 06:37:43 to 2010-04-29 15:27:23
                                                                                    Next 1000 lines
Time Latitude Longitude Heading SOG COG Depth
2010-04-29 06:37:52 51°13.663 2°55.954 113.8 1.3 295 4.6
2010-04-29 06:37:57 51°13.664 2°55.951 114 1.7 298 4.7
2010-04-29 06:38:02 51°13.665 2°55.947 114 2.1 297 4.8
2010-04-29 06:38:07 51°13.667 2°55.942 114 2.4 295 -999
2010-04-29 06:38:13 51°13.669 2°55.935 113.9 2.7 296 -999
2010-04-29 06:38:19 51°13.671 2°55.929 113.9 2.9 295 -999
2010-04-29 06:38:24 51°13.673 2°55.923 114 3.1 298 -999
2010-04-29 06:38:30 51°13.675 2°55.915 114.2 3.1 297 -999
2010-04-29 06:38:34 51°13.677 2°55.91 114.3 3.2 297 -999
2010-04-29 06:38:39 51°13.679 2°55.904 113.7 3.2 296 -999
2010-04-29 06:38:44 51°13.68 2°55.897 112.4 3.2 294 -999
2010-04-29 06:38:49 51°13.682 2°55.891 110.4 3.3 293 -999
2010-04-29 06:38:54 51°13.684 2°55.884 108.1 3.4 289 -999
2010-04-29 06:38:59 51°13.685 2°55.877 105.9 3.5 288 -999
2010-04-29 06:39:04 51°13.686 2°55.869 103.8 3.5 286 -999
2010-04-29 06:39:09 51°13.687 2°55.861 102.3 3.6 284 -999
2010-04-29 06:39:14 51°13.689 2°55.853 101.3 3.6 283 -999
2010-04-29 06:39:19 51°13.69 2°55.846 100.3 3.6 283 -999
2010-04-29 06:39:24 51°13.691 2°55.838 99.6 3.7 283 -999
2010-04-29 06:39:29 51°13.692 2°55.83 99 3.6 282 -999
2010-04-29 06:39:34 51°13.693 2°55.822 98.6 3.6 282 -999
2010-04-29 06:39:39 51°13.694 2°55.814 98 3.6 282 -999
2010-04-29 06:39:44 51°13.695 2°55.807 97.3 3.6 281 -999
2010-04-29 06:39:49 51°13.696 2°55.799 96.6 3.4 281 -999
2010-04-29 06:39:54 51°13.697 2°55.792 95.7 3.5 280 -999
2010-04-29 06:39:59 51°13.698 2°55.784 94.6 3.4 281 -999
2010-04-29 06:40:04 51°13.699 2°55.777 93.5 3.2 280 -999
2010-04-29 06:40:09 51°13.7 2°55.771 92.3 3.1 280 -999
2010-04-29 06:40:14 51°13.7 2°55.764 91.1 2.9 277 5.1
2010-04-29 06:40:19 51°13.701 2°55.759 89.3 2.6 277 -999
2010-04-29 06:40:24 51°13.701 2°55.754 87.2 2.2 278 -999
2010-04-29 06:40:30 51°13.701 2°55.749 84.2 2 277 -999
2010-04-29 06:40:34 51°13.701 2°55.746 81.7 1.7 275 -999
2010-04-29 06:40:39 51°13.702 2°55.743 79.2 1.5 278 -999
2010-04-29 06:40:44 51°13.702 2°55.74 76.3 1 273 -999
2010-04-29 06:40:49 51°13.703 2°55.739 73.3 0.8 288 -999
2010-04-29 06:40:54 51°13.704 2°55.737 69.9 0.5 302 -999
2010-04-29 06:40:59 51°13.704 2°55.737 66.1 0.5 316 -999
2010-04-29 06:41:04 51°13.704 2°55.737 61.9 0.5 346 -999
2010-04-29 06:41:09 51°13.705 2°55.736 58.5 0.5 358 -999
2010-04-29 06:41:14 51°13.706 2°55.736 54.1 0.5 353 -999
2010-04-29 06:41:19 51°13.707 2°55.736 49.6 0.5 335 -999
2010-04-29 06:41:24 51°13.707 2°55.735 46.5 0.3 289 -999
2010-04-29 06:41:29 51°13.707 2°55.734 43.3 0.6 268 -999
2010-04-29 06:41:34 51°13.706 2°55.733 40.2 0.6 253 -999
2010-04-29 06:41:39 51°13.706 2°55.731 37.4 0.9 244 -999
2010-04-29 06:41:44 51°13.704 2°55.729 35.4 1.1 234 -999
2010-04-29 06:41:49 51°13.703 2°55.727 32.7 1.1 237 -999
2010-04-29 06:41:54 51°13.702 2°55.726 30.5 0.9 236 -999
2010-04-29 06:41:59 51°13.702 2°55.724 28.5 0.7 243 -999
2010-04-29 06:42:04 51°13.702 2°55.723 26 0.4 306 -999
2010-04-29 06:42:09 51°13.703 2°55.722 22 0.6 331 -999
2010-04-29 06:42:14 51°13.704 2°55.722 16.8 0.9 346 -999
2010-04-29 06:42:19 51°13.706 2°55.722 10.8 1.3 351 -999
2010-04-29 06:42:24 51°13.709 2°55.721 4.2 2 349 162
2010-04-29 06:42:29 51°13.712 2°55.72 359.1 2.9 346 -999
2010-04-29 06:42:34 51°13.717 2°55.718 352.7 3.7 341 -999
2010-04-29 06:42:39 51°13.722 2°55.714 346.5 4.2 340 -999
2010-04-29 06:42:44 51°13.729 2°55.71 343.5 4.9 337 -999
2010-04-29 06:42:49 51°13.735 2°55.705 339.6 5.6 334 -999
2010-04-29 06:42:54 51°13.743 2°55.698 337.2 6.1 331 -999
2010-04-29 06:42:59 51°13.751 2°55.691 335.4 6.5 333 -999
2010-04-29 06:43:04 51°13.759 2°55.684 334.7 6.9 332 -999
2010-04-29 06:43:09 51°13.768 2°55.676 334.4 7.3 332 -999
2010-04-29 06:43:14 51°13.777 2°55.668 334.5 7.7 334 -999
2010-04-29 06:43:19 51°13.787 2°55.66 335 7.9 333 -999
2010-04-29 06:43:24 51°13.797 2°55.653 335.2 8.2 334 -999
2010-04-29 06:43:29 51°13.809 2°55.646 336.1 8.5 336 -999
2010-04-29 06:43:34 51°13.821 2°55.638 337.5 8.9 337 -999
2010-04-29 06:43:39 51°13.832 2°55.63 338.2 9.1 338 -999
2010-04-29 06:43:44 51°13.844 2°55.622 338.4 9.3 337 -999
2010-04-29 06:43:49 51°13.856 2°55.614 338.9 9.4 338 -999
2010-04-29 06:43:54 51°13.868 2°55.606 339.6 9.6 339 -999
2010-04-29 06:43:59 51°13.88 2°55.598 339.7 9.8 338 9.8
2010-04-29 06:44:03 51°13.89 2°55.592 340 9.9 339 9.6
2010-04-29 06:44:08 51°13.903 2°55.584 340.6 10 340 9.8
2010-04-29 06:44:14 51°13.919 2°55.574 341.1 10.1 338 -999
2010-04-29 06:44:19 51°13.932 2°55.565 339.1 10.1 336 -999
2010-04-29 06:44:24 51°13.944 2°55.555 338.2 10.2 336 -999
2010-04-29 06:44:29 51°13.958 2°55.547 337.6 10.3 336 10
2010-04-29 06:44:34 51°13.971 2°55.537 337.1 10.3 335 -999
2010-04-29 06:44:39 51°13.985 2°55.528 336.9 10.4 336 -999
2010-04-29 06:44:43 51°13.995 2°55.52 336.2 10.4 333 9.4
2010-04-29 06:44:49 51°14.011 2°55.508 335.9 10.4 335 -999
2010-04-29 06:44:54 51°14.024 2°55.498 335.9 10.4 334 -999
2010-04-29 06:44:59 51°14.037 2°55.488 335.9 10.4 335 -999
2010-04-29 06:45:04 51°14.049 2°55.478 336.4 10.4 335 -999
2010-04-29 06:45:08 51°14.06 2°55.47 336.6 10.4 334 9.4
2010-04-29 06:45:15 51°14.078 2°55.455 336.1 10.4 333 9.4
2010-04-29 06:45:19 51°14.088 2°55.447 335.8 10.5 335 9.4
2010-04-29 06:45:23 51°14.098 2°55.439 336.1 10.5 334 9.4
2010-04-29 06:45:28 51°14.111 2°55.428 336 10.5 334 9.4
2010-04-29 06:45:34 51°14.127 2°55.417 336.1 10.6 336 -999
2010-04-29 06:45:40 51°14.143 2°55.405 337.1 10.6 336 -999
2010-04-29 06:45:44 51°14.154 2°55.398 338.3 10.7 337 -999
2010-04-29 06:45:49 51°14.167 2°55.388 338.3 10.7 336 -999
2010-04-29 06:45:54 51°14.181 2°55.378 338.1 10.7 336 9.5
2010-04-29 06:45:59 51°14.195 2°55.369 338 10.8 335 9.4
2010-04-29 06:46:04 51°14.209 2°55.359 337.3 10.9 334 9.5
2010-04-29 06:46:09 51°14.223 2°55.348 335.8 11 333 9.4
2010-04-29 06:46:14 51°14.236 2°55.336 334.7 11.1 332 9.1
2010-04-29 06:46:19 51°14.249 2°55.324 333.9 11.1 331 8.3
2010-04-29 06:46:24 51°14.262 2°55.311 333.2 11.2 330 8.4
2010-04-29 06:46:28 51°14.273 2°55.301 331.9 11.2 330 8.8
2010-04-29 06:46:33 51°14.287 2°55.289 331.4 11.2 330 9
2010-04-29 06:46:38 51°14.3 2°55.276 331.1 11.4 330 9.2
2010-04-29 06:46:43 51°14.314 2°55.264 331 11.5 330 9.2
2010-04-29 06:46:48 51°14.328 2°55.251 331.2 11.5 331 9.2
2010-04-29 06:46:52 51°14.34 2°55.242 332.7 11.6 332 9.1
2010-04-29 06:46:58 51°14.357 2°55.226 333.2 11.7 330 -999
2010-04-29 06:47:03 51°14.371 2°55.212 332.3 11.8 329 9.3
2010-04-29 06:47:08 51°14.385 2°55.199 331.2 11.9 330 9.2
2010-04-29 06:47:13 51°14.399 2°55.185 330.8 12 329 9
2010-04-29 06:47:18 51°14.414 2°55.172 330.8 12.1 329 9.2
2010-04-29 06:47:23 51°14.428 2°55.158 330.5 12.1 329 9.1
2010-04-29 06:47:28 51°14.442 2°55.144 330.7 12.2 328 9.2
2010-04-29 06:47:32 51°14.454 2°55.132 329.9 12.1 328 9
2010-04-29 06:47:37 51°14.468 2°55.119 329.9 12.2 328 8.5
2010-04-29 06:47:42 51°14.482 2°55.103 329.3 12.3 327 8.6
2010-04-29 06:47:47 51°14.497 2°55.089 329.3 12.4 329 8.4
2010-04-29 06:47:52 51°14.512 2°55.074 330.2 12.6 329 8.3
2010-04-29 06:47:56 51°14.524 2°55.063 330.9 12.7 330 9.7
2010-04-29 06:48:01 51°14.539 2°55.049 331.7 12.9 330 9.6
2010-04-29 06:48:06 51°14.555 2°55.033 331.4 13.2 327 10.1
2010-04-29 06:48:11 51°14.57 2°55.016 330.5 13.5 326 10.5
2010-04-29 06:48:16 51°14.585 2°54.998 330.4 13.6 324 10
2010-04-29 06:48:20 51°14.598 2°54.984 330.3 13.7 324 10
2010-04-29 06:48:25 51°14.613 2°54.966 331.5 13.7 326 9.9
2010-04-29 06:48:31 51°14.632 2°54.946 332.8 13.7 326 9.8
2010-04-29 06:48:36 51°14.647 2°54.929 332.9 13.7 325 10
2010-04-29 06:48:40 51°14.66 2°54.914 331.7 13.8 324 10.4
2010-04-29 06:48:46 51°14.679 2°54.893 331.3 13.8 325 10.2
2010-04-29 06:48:51 51°14.694 2°54.876 332.3 13.9 326 10.5
2010-04-29 06:48:56 51°14.711 2°54.859 333.1 13.9 327 10.2
2010-04-29 06:49:00 51°14.723 2°54.845 332.9 13.9 325 10.5
2010-04-29 06:49:06 51°14.742 2°54.825 332.1 13.9 325 10.4
2010-04-29 06:49:11 51°14.758 2°54.807 331.1 13.9 324 10.5
2010-04-29 06:49:16 51°14.774 2°54.79 330.8 13.9 325 10.3
2010-04-29 06:49:20 51°14.787 2°54.776 330.9 13.9 325 10.1
2010-04-29 06:49:25 51°14.802 2°54.757 330.7 13.8 324 10.2
2010-04-29 06:49:31 51°14.82 2°54.734 329.6 13.9 322 10.2
2010-04-29 06:49:36 51°14.835 2°54.715 328 13.9 320 10.5
2010-04-29 06:49:40 51°14.847 2°54.7 327.5 13.9 322 10.2
2010-04-29 06:49:46 51°14.865 2°54.678 328.6 13.9 324 10.2
2010-04-29 06:49:51 51°14.881 2°54.66 330.2 13.9 325 10.4
2010-04-29 06:49:56 51°14.898 2°54.644 331.9 13.8 328 10.4
2010-04-29 06:50:00 51°14.911 2°54.632 333.6 13.8 329 10.3
2010-04-29 06:50:05 51°14.927 2°54.615 333.9 13.8 328 10.2
2010-04-29 06:50:11 51°14.946 2°54.596 333.6 13.8 327 8.2
2010-04-29 06:50:16 51°14.962 2°54.58 333.4 13.6 328 8.1
2010-04-29 06:50:20 51°14.975 2°54.567 333.3 13.2 327 8
2010-04-29 06:50:26 51°14.992 2°54.548 333.2 12.9 326 7.9
2010-04-29 06:50:31 51°15.006 2°54.531 331.8 12.9 324 7.8
2010-04-29 06:50:36 51°15.021 2°54.514 330.2 13 323 7.9
2010-04-29 06:50:40 51°15.032 2°54.499 328.9 13.2 322 7.9
2010-04-29 06:50:46 51°15.049 2°54.477 327.7 13.2 322 7.7
2010-04-29 06:50:51 51°15.064 2°54.459 326.9 13.2 320 7.7
2010-04-29 06:50:56 51°15.078 2°54.441 326.1 13.1 320 7.7
2010-04-29 06:51:01 51°15.091 2°54.421 325.6 13.2 319 7.9
2010-04-29 06:51:06 51°15.105 2°54.402 325 13.2 318 7.9
2010-04-29 06:51:10 51°15.116 2°54.386 324.5 13.3 318 7.9
2010-04-29 06:51:16 51°15.132 2°54.362 324.1 13.3 318 8
2010-04-29 06:51:21 51°15.146 2°54.342 323.9 13.3 317 8.2
2010-04-29 06:51:26 51°15.159 2°54.322 323.9 13.4 317 8.4
2010-04-29 06:51:31 51°15.174 2°54.303 324.3 13.5 318 8.3
2010-04-29 06:51:36 51°15.188 2°54.283 325.2 13.6 319 8.4
2010-04-29 06:51:40 51°15.199 2°54.267 326.4 13.6 320 8.4
2010-04-29 06:51:46 51°15.217 2°54.245 327.4 13.6 321 8.5
2010-04-29 06:51:51 51°15.231 2°54.226 328.2 13.7 321 8.5
2010-04-29 06:51:56 51°15.246 2°54.207 328.5 13.7 322 8.6
2010-04-29 06:52:00 51°15.258 2°54.192 329.3 13.7 323 8.6
2010-04-29 06:52:05 51°15.273 2°54.174 329.9 13.7 323 8.6
2010-04-29 06:52:11 51°15.291 2°54.152 330.1 13.7 323 8.7
2010-04-29 06:52:16 51°15.307 2°54.133 330.1 13.7 323 8.7
2010-04-29 06:52:20 51°15.319 2°54.118 330.1 13.8 322 8.8
2010-04-29 06:52:26 51°15.337 2°54.097 330.1 13.8 323 8.8
2010-04-29 06:52:31 51°15.353 2°54.078 330.1 13.8 322 8.8
2010-04-29 06:52:36 51°15.368 2°54.06 329.2 13.9 322 8.8
2010-04-29 06:52:40 51°15.38 2°54.045 329.3 13.8 322 8.9
2010-04-29 06:52:46 51°15.398 2°54.022 329.1 13.9 321 8.9
2010-04-29 06:52:51 51°15.412 2°54.002 328.8 13.9 321 8.9
2010-04-29 06:52:56 51°15.427 2°53.983 328.2 13.9 321 9
2010-04-29 06:53:01 51°15.442 2°53.963 328.1 13.9 322 9
2010-04-29 06:53:06 51°15.457 2°53.945 328.4 13.9 321 9
2010-04-29 06:53:10 51°15.469 2°53.929 328.6 13.9 322 9.2
2010-04-29 06:53:16 51°15.487 2°53.907 328.8 14 322 9.2
2010-04-29 06:53:20 51°15.499 2°53.892 328.9 14 322 9.3
2010-04-29 06:53:26 51°15.518 2°53.869 329.3 14 322 9.3
2010-04-29 06:53:31 51°15.533 2°53.85 329.8 14 323 9.2
2010-04-29 06:53:36 51°15.549 2°53.831 330.1 14 322 9.3
2010-04-29 06:53:40 51°15.561 2°53.816 330.3 14 323 9.3
2010-04-29 06:53:46 51°15.58 2°53.794 330.3 14 322 9.4
2010-04-29 06:53:51 51°15.596 2°53.775 329.9 14 323 9.5
2010-04-29 06:53:56 51°15.611 2°53.756 329.9 14 322 9.6
2010-04-29 06:54:00 51°15.623 2°53.741 329.7 14 322 9.6
2010-04-29 06:54:05 51°15.639 2°53.722 329.7 14 323 9.6
2010-04-29 06:54:11 51°15.657 2°53.7 329.7 14 322 9.6
2010-04-29 06:54:16 51°15.672 2°53.681 329.6 14 322 9.6
2010-04-29 06:54:20 51°15.685 2°53.665 329.4 14 322 9.7
2010-04-29 06:54:26 51°15.703 2°53.643 329.5 14 323 9.7
2010-04-29 06:54:31 51°15.719 2°53.624 329.8 14 323 9.8
2010-04-29 06:54:36 51°15.735 2°53.606 330.1 14 324 9.7
2010-04-29 06:54:40 51°15.747 2°53.591 330.2 14 323 9.8
2010-04-29 06:54:46 51°15.766 2°53.568 330.2 14 323 9.8
2010-04-29 06:54:50 51°15.778 2°53.553 329.9 14 323 9.9
2010-04-29 06:54:56 51°15.797 2°53.531 330 14 323 9.9
2010-04-29 06:55:01 51°15.812 2°53.513 329.9 14 323 10
2010-04-29 06:55:06 51°15.828 2°53.494 329.6 14 323 10
2010-04-29 06:55:10 51°15.84 2°53.479 329.4 14 323 10.1
2010-04-29 06:55:16 51°15.859 2°53.457 329.5 14 324 10
2010-04-29 06:55:20 51°15.871 2°53.442 329.7 14 323 10.1
2010-04-29 06:55:26 51°15.89 2°53.419 329.6 14 323 10.1
2010-04-29 06:55:31 51°15.906 2°53.399 329.6 14 322 10.1
2010-04-29 06:55:36 51°15.922 2°53.381 329.4 13.9 324 10.1
2010-04-29 06:55:40 51°15.935 2°53.366 329.7 14 323 10.3
2010-04-29 06:55:46 51°15.955 2°53.347 332.5 13.9 328 10.3
2010-04-29 06:55:51 51°15.971 2°53.33 334.1 13.9 328 10.1
2010-04-29 06:55:56 51°15.988 2°53.316 336.2 13.8 332 10
2010-04-29 06:56:00 51°16.001 2°53.305 338.5 13.6 332 10.2
2010-04-29 06:56:06 51°16.022 2°53.29 340.2 13.6 335 10.1
2010-04-29 06:56:11 51°16.039 2°53.277 341 13.6 334 10.1
2010-04-29 06:56:16 51°16.056 2°53.265 342.3 13.5 337 10.2
2010-04-29 06:56:20 51°16.07 2°53.255 343 13.6 336 10.4
2010-04-29 06:56:26 51°16.091 2°53.242 343.8 13.6 338 10.2
2010-04-29 06:56:31 51°16.108 2°53.23 344.4 13.6 337 10.2
2010-04-29 06:56:36 51°16.126 2°53.22 345 13.5 339 10.3
2010-04-29 06:56:40 51°16.14 2°53.211 345.3 13.5 338 10.3
2010-04-29 06:56:46 51°16.161 2°53.198 345.6 13.5 339 10.3
2010-04-29 06:56:51 51°16.179 2°53.187 345.6 13.6 338 10.3
2010-04-29 06:56:56 51°16.196 2°53.176 345.2 13.6 338 10.3
2010-04-29 06:57:00 51°16.211 2°53.166 344.9 13.7 338 10.3
2010-04-29 06:57:05 51°16.227 2°53.155 344.8 13.5 338 10.3
2010-04-29 06:57:11 51°16.248 2°53.141 344.8 13.6 337 10.3
2010-04-29 06:57:16 51°16.266 2°53.13 344.8 13.6 337 10.3
2010-04-29 06:57:21 51°16.283 2°53.118 344.5 13.5 337 10.4
2010-04-29 06:57:26 51°16.3 2°53.107 344.3 13.6 338 10.4
2010-04-29 06:57:30 51°16.314 2°53.098 344.6 13.6 338 10.4
2010-04-29 06:57:36 51°16.335 2°53.084 344.7 13.6 337 10.4
2010-04-29 06:57:41 51°16.352 2°53.072 344.6 13.6 337 10.4
2010-04-29 06:57:46 51°16.37 2°53.061 344.6 13.6 337 10.4
2010-04-29 06:57:51 51°16.387 2°53.049 344.8 13.5 337 10.3
2010-04-29 06:57:56 51°16.405 2°53.037 344.8 13.6 337 10.2
2010-04-29 06:58:01 51°16.422 2°53.026 344.7 13.6 337 10.3
2010-04-29 06:58:06 51°16.439 2°53.014 344.5 13.4 337 10.3
2010-04-29 06:58:11 51°16.456 2°53.002 344.2 13.5 337 10.2
2010-04-29 06:58:16 51°16.473 2°52.99 343.7 13.6 336 10.2
2010-04-29 06:58:20 51°16.487 2°52.98 343.7 13.6 337 10.1
2010-04-29 06:58:26 51°16.508 2°52.966 343.9 13.6 337 10.1
2010-04-29 06:58:31 51°16.525 2°52.955 344 13.4 337 10.2
2010-04-29 06:58:36 51°16.542 2°52.944 344.1 13.4 338 10.1
2010-04-29 06:58:40 51°16.556 2°52.935 344.4 13.4 338 10
2010-04-29 06:58:46 51°16.577 2°52.922 344.5 13.4 339 10
2010-04-29 06:58:51 51°16.595 2°52.912 344.6 13.4 339 9.9
2010-04-29 06:58:56 51°16.612 2°52.901 344.7 13.4 339 9.7
2010-04-29 06:59:00 51°16.626 2°52.893 344.6 13.4 339 9.7
2010-04-29 06:59:05 51°16.643 2°52.882 344.3 13.3 339 9.5
2010-04-29 06:59:10 51°16.661 2°52.872 344.2 13.3 339 9.5
2010-04-29 06:59:16 51°16.682 2°52.859 344.1 13.4 339 9.4
2010-04-29 06:59:20 51°16.696 2°52.851 344.3 13.3 340 9.3
2010-04-29 06:59:26 51°16.717 2°52.839 344.3 13.3 340 9.2
2010-04-29 06:59:30 51°16.73 2°52.83 344.1 13.3 339 9.1
2010-04-29 06:59:36 51°16.751 2°52.817 343.6 13.2 339 8.6
2010-04-29 06:59:40 51°16.764 2°52.809 343.1 13.1 338 8.4
2010-04-29 06:59:46 51°16.784 2°52.797 343.1 12.9 339 7.9
2010-04-29 06:59:51 51°16.8 2°52.786 342.9 12.7 338 7.8
2010-04-29 06:59:56 51°16.817 2°52.775 342.8 12.7 338 8
2010-04-29 07:00:01 51°16.833 2°52.765 342.7 12.7 338 8
2010-04-29 07:00:06 51°16.849 2°52.754 342.2 12.6 337 7.7
2010-04-29 07:00:11 51°16.865 2°52.743 341.7 12.6 336 7.5
2010-04-29 07:00:16 51°16.881 2°52.732 341.3 12.6 337 7.6
2010-04-29 07:00:20 51°16.894 2°52.722 341 12.6 336 7.8
2010-04-29 07:00:26 51°16.913 2°52.709 340.8 12.5 336 7.9
2010-04-29 07:00:31 51°16.929 2°52.697 341 12.6 336 7.8
2010-04-29 07:00:36 51°16.945 2°52.686 341.2 12.6 337 7.7
2010-04-29 07:00:40 51°16.958 2°52.677 341.2 12.8 336 8.1
2010-04-29 07:00:46 51°16.978 2°52.663 341.2 12.9 336 8.3
2010-04-29 07:00:51 51°16.995 2°52.652 341.9 12.9 338 8.2
2010-04-29 07:00:56 51°17.011 2°52.641 342.2 12.9 336 8.2
2010-04-29 07:01:00 51°17.025 2°52.633 342.5 12.9 340 8.3
2010-04-29 07:01:05 51°17.041 2°52.622 342.7 13 338 8.1
2010-04-29 07:01:11 51°17.062 2°52.612 344.8 12.9 342 8.2
2010-04-29 07:01:16 51°17.079 2°52.603 345.8 12.8 341 8.2
2010-04-29 07:01:20 51°17.092 2°52.597 347.7 12.7 345 8
2010-04-29 07:01:25 51°17.109 2°52.589 348.7 12.6 345 8
2010-04-29 07:01:31 51°17.129 2°52.582 350.1 12.5 346 7.8
2010-04-29 07:01:36 51°17.146 2°52.575 350.8 12.6 346 8
2010-04-29 07:01:40 51°17.16 2°52.57 351.4 12.5 347 8.1
2010-04-29 07:01:45 51°17.177 2°52.564 352 12.6 347 8
2010-04-29 07:01:51 51°17.197 2°52.556 352.1 12.7 347 8.2
2010-04-29 07:01:56 51°17.214 2°52.55 352.1 12.7 347 8.3
2010-04-29 07:02:00 51°17.228 2°52.544 351.5 12.7 346 8.2
2010-04-29 07:02:06 51°17.249 2°52.535 350.7 12.8 345 8.1
2010-04-29 07:02:11 51°17.266 2°52.528 350.5 12.9 345 8.1
2010-04-29 07:02:16 51°17.283 2°52.52 349.7 12.9 343 8.3
2010-04-29 07:02:20 51°17.297 2°52.513 348.8 12.9 343 8.3
2010-04-29 07:02:26 51°17.317 2°52.502 348 12.9 342 8.5
2010-04-29 07:02:31 51°17.334 2°52.493 347.6 13 342 8.7
2010-04-29 07:02:36 51°17.351 2°52.484 347.2 12.9 341 8.6
2010-04-29 07:02:40 51°17.365 2°52.478 347.2 12.9 342 8.5
2010-04-29 07:02:46 51°17.385 2°52.467 347.5 13 343 8.6
2010-04-29 07:02:51 51°17.403 2°52.459 347.8 13 343 8.7
2010-04-29 07:02:56 51°17.42 2°52.453 349.5 13 346 8.7
2010-04-29 07:03:00 51°17.434 2°52.447 351.1 13 346 8.9
2010-04-29 07:03:05 51°17.451 2°52.442 352.2 12.9 349 8.6
2010-04-29 07:03:11 51°17.472 2°52.435 353.7 12.9 349 8.8
2010-04-29 07:03:16 51°17.49 2°52.43 354.3 12.9 350 8.7
2010-04-29 07:03:20 51°17.504 2°52.426 355 12.9 350 8.8
2010-04-29 07:03:26 51°17.525 2°52.42 355.4 12.8 351 8.8
2010-04-29 07:03:31 51°17.543 2°52.415 355.7 12.8 350 8.6
2010-04-29 07:03:36 51°17.56 2°52.411 356 12.8 351 8.8
2010-04-29 07:03:40 51°17.574 2°52.407 356.1 12.9 351 8.6
2010-04-29 07:03:45 51°17.592 2°52.402 356.1 12.9 350 8.6
2010-04-29 07:03:51 51°17.613 2°52.396 355.8 12.8 350 8.9
2010-04-29 07:03:56 51°17.631 2°52.391 355.8 12.9 350 8.9
2010-04-29 07:04:00 51°17.645 2°52.387 355.7 12.9 350 8.7
2010-04-29 07:04:06 51°17.665 2°52.38 355.1 12.9 349 8.8
2010-04-29 07:04:11 51°17.683 2°52.375 354.9 12.9 349 8.7
2010-04-29 07:04:16 51°17.7 2°52.369 354.5 12.8 349 8.7
2010-04-29 07:04:20 51°17.714 2°52.365 354.4 12.8 349 8.5
2010-04-29 07:04:26 51°17.735 2°52.359 354.6 12.7 349 8.7
2010-04-29 07:04:31 51°17.752 2°52.353 354.8 12.8 349 8.9
2010-04-29 07:04:36 51°17.77 2°52.347 354.8 12.8 349 8.9
2010-04-29 07:04:40 51°17.784 2°52.344 355.3 12.7 350 8.7
2010-04-29 07:04:46 51°17.805 2°52.338 355.5 12.8 349 8.9
2010-04-29 07:04:51 51°17.823 2°52.333 355.4 12.8 350 8.7
2010-04-29 07:04:56 51°17.84 2°52.327 355.7 12.8 349 8.8
2010-04-29 07:05:00 51°17.854 2°52.324 355.7 12.8 350 8.8
2010-04-29 07:05:06 51°17.876 2°52.317 355.7 12.9 349 8.8
2010-04-29 07:05:11 51°17.893 2°52.312 355.4 12.8 349 8.7
2010-04-29 07:05:16 51°17.91 2°52.306 355 12.8 348 8.9
2010-04-29 07:05:20 51°17.924 2°52.302 354.8 12.8 349 8.8
2010-04-29 07:05:26 51°17.946 2°52.295 354.7 12.9 348 8.8
2010-04-29 07:05:31 51°17.963 2°52.29 354.7 12.9 349 8.7
2010-04-29 07:05:36 51°17.981 2°52.283 354.4 12.9 347 9
2010-04-29 07:05:40 51°17.995 2°52.279 354.2 12.9 349 8.9
2010-04-29 07:05:45 51°18.012 2°52.272 354.3 12.9 347 9
2010-04-29 07:05:51 51°18.034 2°52.266 353.8 12.9 348 9.1
2010-04-29 07:05:56 51°18.051 2°52.259 353.9 13.1 347 9.1
2010-04-29 07:06:00 51°18.066 2°52.254 353.7 13.1 348 9.3
2010-04-29 07:06:06 51°18.087 2°52.247 354 13.1 348 9.4
2010-04-29 07:06:11 51°18.105 2°52.241 354.2 13.2 348 9.5
2010-04-29 07:06:16 51°18.123 2°52.235 353.8 13.2 348 9.8
2010-04-29 07:06:20 51°18.137 2°52.23 354 13.2 348 9.8
2010-04-29 07:06:26 51°18.159 2°52.223 353.9 13.2 348 9.6
2010-04-29 07:06:31 51°18.176 2°52.217 353.9 13.2 348 9.6
2010-04-29 07:06:36 51°18.193 2°52.211 354 13.2 348 9.7
2010-04-29 07:06:41 51°18.211 2°52.205 354.1 13.2 348 9.9
2010-04-29 07:06:46 51°18.229 2°52.199 354.3 13.2 348 10
2010-04-29 07:06:50 51°18.243 2°52.195 354.5 13.2 349 9.9
2010-04-29 07:06:56 51°18.265 2°52.188 354.5 13.2 348 10
2010-04-29 07:07:00 51°18.279 2°52.183 354.6 13.1 348 9.8
2010-04-29 07:07:06 51°18.3 2°52.176 354.5 13.1 348 10
2010-04-29 07:07:11 51°18.318 2°52.17 354.3 13.2 348 9.9
2010-04-29 07:07:16 51°18.336 2°52.164 354.1 13.1 348 10
2010-04-29 07:07:20 51°18.351 2°52.159 354.5 13.1 348 9.8
2010-04-29 07:07:26 51°18.372 2°52.152 354.5 13.1 348 9.8
2010-04-29 07:07:31 51°18.39 2°52.146 354.4 13.2 348 9.6
2010-04-29 07:07:36 51°18.408 2°52.14 354.6 13.1 349 9.8
2010-04-29 07:07:40 51°18.422 2°52.136 354.9 13.1 348 10
2010-04-29 07:07:45 51°18.44 2°52.13 354.8 13.1 348 10
2010-04-29 07:07:51 51°18.461 2°52.123 354.8 13.2 349 9.9
2010-04-29 07:07:56 51°18.479 2°52.117 354.9 13.2 348 10.1
2010-04-29 07:08:00 51°18.494 2°52.113 354.8 13.2 348 10.1
2010-04-29 07:08:05 51°18.511 2°52.107 354.8 13.1 348 10.2
2010-04-29 07:08:11 51°18.533 2°52.099 354.7 13.2 348 10.2
2010-04-29 07:08:16 51°18.551 2°52.093 354.4 13.2 348 10.3
2010-04-29 07:08:20 51°18.565 2°52.088 354.3 13.2 348 10.4
2010-04-29 07:08:25 51°18.583 2°52.082 354.3 13.2 348 10.4
2010-04-29 07:08:31 51°18.605 2°52.074 354.3 13.3 347 10.6
2010-04-29 07:08:36 51°18.623 2°52.068 354.3 13.3 347 10.9
2010-04-29 07:08:40 51°18.637 2°52.063 354.1 13.3 347 10.9
2010-04-29 07:08:46 51°18.658 2°52.055 354 13.3 347 11
2010-04-29 07:08:51 51°18.677 2°52.048 353.7 13.3 347 11.1
2010-04-29 07:08:56 51°18.694 2°52.042 353.8 13.3 348 11.2
2010-04-29 07:09:00 51°18.709 2°52.036 353.9 13.3 347 11.4
2010-04-29 07:09:05 51°18.727 2°52.03 353.9 13.3 347 11.4
2010-04-29 07:09:11 51°18.748 2°52.022 354.1 13.3 347 11.5
2010-04-29 07:09:16 51°18.766 2°52.016 354.3 13.3 348 11.6
2010-04-29 07:09:20 51°18.781 2°52.011 354.4 13.3 347 11.7
2010-04-29 07:09:26 51°18.802 2°52.002 354.5 13.3 347 11.8
2010-04-29 07:09:31 51°18.82 2°51.996 354.3 13.3 347 11.9
2010-04-29 07:09:36 51°18.838 2°51.989 354.3 13.3 347 12
2010-04-29 07:09:40 51°18.852 2°51.984 354.3 13.3 347 12.1
2010-04-29 07:09:45 51°18.87 2°51.977 354.3 13.3 347 12.1
2010-04-29 07:09:51 51°18.892 2°51.969 354.4 13.3 347 12.1
2010-04-29 07:09:56 51°18.91 2°51.963 354.5 13.2 347 12.2
2010-04-29 07:10:00 51°18.924 2°51.957 354.5 13.2 346 12.4
2010-04-29 07:10:05 51°18.942 2°51.951 354.8 13.2 347 12.5
2010-04-29 07:10:11 51°18.963 2°51.943 354.9 13.2 347 12.7
2010-04-29 07:10:16 51°18.981 2°51.936 354.7 13.2 347 12.9
2010-04-29 07:10:20 51°18.996 2°51.931 354.8 13.2 347 12.9
2010-04-29 07:10:25 51°19.014 2°51.924 354.8 13.3 347 12.9
2010-04-29 07:10:31 51°19.035 2°51.916 354.6 13.2 347 13.2
2010-04-29 07:10:36 51°19.053 2°51.909 354.5 13.2 346 13.3
2010-04-29 07:10:40 51°19.067 2°51.904 354.4 13.2 347 13.4
2010-04-29 07:10:46 51°19.088 2°51.896 354.4 13.2 346 13.4
2010-04-29 07:10:51 51°19.106 2°51.888 354.3 13.2 346 13.4
2010-04-29 07:10:56 51°19.124 2°51.881 354.1 13.2 346 13.3
2010-04-29 07:11:01 51°19.142 2°51.874 353.9 13.2 345 13.2
2010-04-29 07:11:06 51°19.159 2°51.867 353.9 13.2 346 13.1
2010-04-29 07:11:11 51°19.177 2°51.859 353.9 13.2 345 13.2
2010-04-29 07:11:16 51°19.195 2°51.852 353.8 13.2 346 13.7
2010-04-29 07:11:20 51°19.209 2°51.847 354 13.2 346 13.9
2010-04-29 07:11:26 51°19.23 2°51.839 354.4 13.2 347 13.9
2010-04-29 07:11:31 51°19.248 2°51.832 354.6 13.2 346 14
2010-04-29 07:11:36 51°19.266 2°51.825 354.6 13.2 347 14
2010-04-29 07:11:40 51°19.28 2°51.82 354.5 13.2 346 14
2010-04-29 07:11:46 51°19.302 2°51.811 354.4 13.2 346 14.1
2010-04-29 07:11:51 51°19.32 2°51.805 354.4 13.2 347 14.1
2010-04-29 07:11:56 51°19.337 2°51.798 354.4 13.2 346 14.1
2010-04-29 07:12:00 51°19.351 2°51.792 354.4 13.2 346 14.1
2010-04-29 07:12:05 51°19.369 2°51.785 354.3 13.2 346 14.2
2010-04-29 07:12:11 51°19.391 2°51.777 354.2 13.2 346 14.2
2010-04-29 07:12:16 51°19.408 2°51.769 354 13.2 345 14.3
2010-04-29 07:12:20 51°19.422 2°51.763 353.9 13.2 346 14.3
2010-04-29 07:12:25 51°19.44 2°51.756 353.9 13.2 346 14.4
2010-04-29 07:12:30 51°19.458 2°51.749 354 13.2 346 14.4
2010-04-29 07:12:36 51°19.479 2°51.74 354.2 13.2 346 14.4
2010-04-29 07:12:40 51°19.494 2°51.734 354.1 13.2 345 14.4
2010-04-29 07:12:45 51°19.511 2°51.727 353.9 13.2 345 14.4
2010-04-29 07:12:51 51°19.533 2°51.718 354 13.2 345 14.3
2010-04-29 07:12:56 51°19.55 2°51.711 354.1 13.2 345 14.2
2010-04-29 07:13:00 51°19.564 2°51.705 354.2 13.2 345 14.3
2010-04-29 07:13:05 51°19.582 2°51.697 354.2 13.2 345 14.3
2010-04-29 07:13:11 51°19.603 2°51.689 354.1 13.2 345 14.3
2010-04-29 07:13:16 51°19.621 2°51.681 354.3 13.1 345 14.2
2010-04-29 07:13:21 51°19.638 2°51.674 354.6 13.1 346 14.3
2010-04-29 07:13:26 51°19.656 2°51.667 354.8 13.1 346 14.2
2010-04-29 07:13:30 51°19.67 2°51.662 355 13.1 346 14.1
2010-04-29 07:13:36 51°19.691 2°51.653 354.7 13.1 346 13.9
2010-04-29 07:13:41 51°19.709 2°51.646 354.4 13.1 346 13.9
2010-04-29 07:13:46 51°19.726 2°51.639 355 13.1 347 13.8
2010-04-29 07:13:51 51°19.744 2°51.634 356.5 12.9 349 13.9
2010-04-29 07:13:56 51°19.762 2°51.629 357.4 12.9 349 13.8
2010-04-29 07:14:00 51°19.776 2°51.625 358.5 13 351 13.6
2010-04-29 07:14:06 51°19.797 2°51.62 359.3 13 350 13.7
2010-04-29 07:14:11 51°19.815 2°51.616 -999 12.9 352 13.7
2010-04-29 07:14:16 51°19.833 2°51.612 0.2 13 351 13.5
2010-04-29 07:14:20 51°19.847 2°51.609 0.8 12.9 353 13.6
2010-04-29 07:14:26 51°19.869 2°51.604 0.9 13 352 13.6
2010-04-29 07:14:31 51°19.886 2°51.6 0.9 12.9 352 13.4
2010-04-29 07:14:36 51°19.904 2°51.596 1.1 12.9 352 13.3
2010-04-29 07:14:40 51°19.918 2°51.593 0.9 12.9 352 13.5
2010-04-29 07:14:46 51°19.939 2°51.588 1 12.9 352 13.5
2010-04-29 07:14:51 51°19.957 2°51.585 1 12.9 352 13.2
2010-04-29 07:14:56 51°19.975 2°51.581 1.1 12.9 352 13.1
2010-04-29 07:15:00 51°19.989 2°51.578 1.1 12.9 352 13.2
2010-04-29 07:15:05 51°20.007 2°51.574 1.1 12.9 353 12.9
2010-04-29 07:15:10 51°20.025 2°51.57 1.1 12.9 352 12.7
2010-04-29 07:15:16 51°20.046 2°51.566 1.1 12.9 352 12.3
2010-04-29 07:15:21 51°20.064 2°51.562 1.1 12.9 353 12.3
2010-04-29 07:15:26 51°20.081 2°51.558 1.2 12.8 352 12
2010-04-29 07:15:30 51°20.095 2°51.555 1.2 12.8 352 11.8
2010-04-29 07:15:36 51°20.117 2°51.551 1.2 12.9 353 11.6
2010-04-29 07:15:40 51°20.131 2°51.547 0.9 12.9 352 11.2
2010-04-29 07:15:46 51°20.152 2°51.543 0.8 12.9 352 11.6
2010-04-29 07:15:51 51°20.17 2°51.539 0.8 12.9 352 11.8
2010-04-29 07:15:56 51°20.188 2°51.535 0.6 12.9 352 11.7
2010-04-29 07:16:00 51°20.202 2°51.532 0.5 13 352 11.7
2010-04-29 07:16:06 51°20.224 2°51.527 0.5 13 352 11.5
2010-04-29 07:16:11 51°20.241 2°51.523 0.3 13 353 11.2
2010-04-29 07:16:16 51°20.259 2°51.519 0.3 13 352 11.7
2010-04-29 07:16:20 51°20.274 2°51.516 0.1 13.1 353 11.7
2010-04-29 07:16:26 51°20.295 2°51.511 0.2 13.1 352 12
2010-04-29 07:16:31 51°20.313 2°51.507 0.5 13.1 353 12
2010-04-29 07:16:36 51°20.332 2°51.503 0.8 13.1 353 12.3
2010-04-29 07:16:40 51°20.346 2°51.5 1 13.1 353 12.2
2010-04-29 07:16:45 51°20.364 2°51.496 1.1 13.1 353 12.8
2010-04-29 07:16:51 51°20.386 2°51.492 1.4 13.1 353 12.7
2010-04-29 07:16:56 51°20.404 2°51.488 1.1 13.2 352 12.7
2010-04-29 07:17:00 51°20.419 2°51.485 1 13.2 353 12.7
2010-04-29 07:17:05 51°20.437 2°51.481 0.8 13.2 352 12.7
2010-04-29 07:17:11 51°20.459 2°51.477 0.8 13.1 353 12.6
2010-04-29 07:17:16 51°20.477 2°51.472 0.6 13.2 352 12.7
2010-04-29 07:17:20 51°20.491 2°51.469 0.3 13.2 352 12.6
2010-04-29 07:17:26 51°20.513 2°51.464 0.3 13.2 352 12.6
2010-04-29 07:17:31 51°20.531 2°51.46 0.1 13.2 352 12.7
2010-04-29 07:17:36 51°20.549 2°51.456 0.1 13.2 352 12.7
2010-04-29 07:17:40 51°20.563 2°51.453 0.1 13.2 352 12.8
2010-04-29 07:17:46 51°20.585 2°51.448 0.1 13.2 352 13.4
2010-04-29 07:17:51 51°20.603 2°51.444 0.2 13.2 352 13.6
2010-04-29 07:17:56 51°20.622 2°51.44 0.4 13.2 352 13.8
2010-04-29 07:18:00 51°20.636 2°51.437 0.6 13.3 352 13.9
2010-04-29 07:18:05 51°20.654 2°51.433 0.5 13.3 352 14.4
2010-04-29 07:18:11 51°20.676 2°51.428 0.4 13.3 352 14.5
2010-04-29 07:18:16 51°20.694 2°51.424 0.2 13.3 352 14.6
2010-04-29 07:18:20 51°20.709 2°51.42 0.2 13.3 352 15
2010-04-29 07:18:26 51°20.731 2°51.415 0.1 13.3 351 15
2010-04-29 07:18:31 51°20.749 2°51.41 -999 13.2 351 15.3
2010-04-29 07:18:36 51°20.767 2°51.406 -999 13.3 351 15.5
2010-04-29 07:18:40 51°20.782 2°51.402 -999 13.3 351 15.7
2010-04-29 07:18:46 51°20.804 2°51.397 -999 13.3 351 15.9
2010-04-29 07:18:51 51°20.822 2°51.392 -999 13.3 351 16.1
2010-04-29 07:18:56 51°20.84 2°51.387 359.9 13.3 351 16.3
2010-04-29 07:19:00 51°20.855 2°51.384 -999 13.3 351 16.4
2010-04-29 07:19:05 51°20.873 2°51.38 0.2 13.3 352 16.5
2010-04-29 07:19:11 51°20.895 2°51.375 0.5 13.3 352 16.8
2010-04-29 07:19:16 51°20.913 2°51.37 0.5 13.3 351 16.9
2010-04-29 07:19:20 51°20.928 2°51.367 0.3 13.3 351 17.2
2010-04-29 07:19:26 51°20.95 2°51.361 0.1 13.3 351 17.2
2010-04-29 07:19:30 51°20.965 2°51.358 0.1 13.4 351 17.4
2010-04-29 07:19:36 51°20.986 2°51.352 0.2 13.4 351 17.6
2010-04-29 07:19:40 51°21.001 2°51.349 0.6 13.3 352 17.9
2010-04-29 07:19:46 51°21.023 2°51.343 0.6 13.4 351 18.2
2010-04-29 07:19:51 51°21.041 2°51.339 0.4 13.3 352 18.3
2010-04-29 07:19:56 51°21.06 2°51.335 0.5 13.3 351 18.7
2010-04-29 07:20:01 51°21.078 2°51.33 0.7 13.3 352 19
2010-04-29 07:20:06 51°21.096 2°51.326 0.7 13.4 351 19.1
2010-04-29 07:20:11 51°21.115 2°51.321 0.4 13.4 351 19.3
2010-04-29 07:20:16 51°21.133 2°51.317 0.4 13.4 352 19.6
2010-04-29 07:20:20 51°21.148 2°51.313 0.5 13.4 351 19.8
2010-04-29 07:20:26 51°21.17 2°51.308 0.5 13.4 351 20
2010-04-29 07:20:31 51°21.188 2°51.304 0.7 13.4 352 20.4
2010-04-29 07:20:36 51°21.206 2°51.299 0.6 13.4 351 20.4
2010-04-29 07:20:40 51°21.221 2°51.296 0.5 13.4 352 20.7
2010-04-29 07:20:46 51°21.243 2°51.29 0.5 13.4 351 20.9
2010-04-29 07:20:51 51°21.262 2°51.286 0.4 13.4 352 21.2
2010-04-29 07:20:56 51°21.28 2°51.281 0.4 13.4 351 21.5
2010-04-29 07:21:00 51°21.295 2°51.278 0.6 13.5 352 21.5
2010-04-29 07:21:05 51°21.313 2°51.273 0.7 13.5 351 21.6
2010-04-29 07:21:11 51°21.335 2°51.267 0.2 13.5 351 21.8
2010-04-29 07:21:16 51°21.354 2°51.263 0.2 13.4 351 22
2010-04-29 07:21:20 51°21.369 2°51.259 0.1 13.5 351 21.9
2010-04-29 07:21:25 51°21.387 2°51.254 -999 13.5 351 22.4
2010-04-29 07:21:31 51°21.409 2°51.248 359.5 13.5 350 22.5
2010-04-29 07:21:36 51°21.428 2°51.242 359.2 13.5 350 22.4
2010-04-29 07:21:40 51°21.442 2°51.238 358.6 13.5 349 22.4
2010-04-29 07:21:45 51°21.461 2°51.232 358 13.6 349 22.6
2010-04-29 07:21:51 51°21.483 2°51.224 357.7 13.5 348 22.6
2010-04-29 07:21:56 51°21.501 2°51.218 357.2 13.6 348 22.7
2010-04-29 07:22:00 51°21.516 2°51.212 356.6 13.6 347 22.4
2010-04-29 07:22:05 51°21.534 2°51.205 356 13.6 346 22.6
2010-04-29 07:22:11 51°21.556 2°51.196 355 13.6 345 22.6
2010-04-29 07:22:16 51°21.575 2°51.187 354.3 13.6 344 22.6
2010-04-29 07:22:21 51°21.593 2°51.178 353.3 13.6 342 22.6
2010-04-29 07:22:26 51°21.61 2°51.167 351.2 13.7 339 22.6
2010-04-29 07:22:30 51°21.624 2°51.156 347.1 13.7 333 22.8
2010-04-29 07:22:36 51°21.642 2°51.135 341.5 13.6 326 22.6
2010-04-29 07:22:41 51°21.655 2°51.113 333.4 13.5 316 22.8
2010-04-29 07:22:46 51°21.666 2°51.089 323.1 13.5 306 22.9
2010-04-29 07:22:51 51°21.673 2°51.061 312.3 13.5 296 22.8
2010-04-29 07:22:56 51°21.679 2°51.032 301.7 13.7 289 22.7
2010-04-29 07:23:00 51°21.682 2°51.008 292.2 14 284 22.7
2010-04-29 07:23:05 51°21.688 2°50.978 289.9 14.2 287 22.9
2010-04-29 07:23:11 51°21.697 2°50.943 294.7 14.3 292 22.8
2010-04-29 07:23:16 51°21.707 2°50.915 300.7 14.3 298 23
2010-04-29 07:23:20 51°21.712 2°50.89 300.5 14.7 291 22.9
2010-04-29 07:23:26 51°21.722 2°50.855 299.7 14.7 295 23
2010-04-29 07:23:31 51°21.73 2°50.824 299.1 14.8 291 22.9
2010-04-29 07:23:36 51°21.738 2°50.793 298 14.9 292 22.9
2010-04-29 07:23:40 51°21.744 2°50.769 297.1 15 292 22.7
2010-04-29 07:23:46 51°21.753 2°50.732 297.4 14.9 293 22.6
2010-04-29 07:23:50 51°21.761 2°50.709 300.2 14.9 297 22.8
2010-04-29 07:23:56 51°21.772 2°50.673 302.3 14.9 296 22.5
2010-04-29 07:24:01 51°21.782 2°50.644 302.7 14.9 298 22.4
2010-04-29 07:24:06 51°21.792 2°50.616 303.5 14.7 300 22.1
2010-04-29 07:24:11 51°21.803 2°50.589 305.6 14.3 304 21.9
2010-04-29 07:24:16 51°21.817 2°50.57 315.1 13.6 318 21.7
2010-04-29 07:24:20 51°21.829 2°50.558 326.6 12.9 327 21.8
2010-04-29 07:24:26 51°21.848 2°50.546 338.1 12.3 337 21.7
2010-04-29 07:24:31 51°21.865 2°50.541 349.5 12.2 347 21.6
2010-04-29 07:24:36 51°21.882 2°50.536 356.3 12.5 349 21.6
2010-04-29 07:24:40 51°21.896 2°50.532 358.4 12.8 350 21.6
2010-04-29 07:24:46 51°21.918 2°50.528 359.8 13 352 21.4
2010-04-29 07:24:51 51°21.936 2°50.524 0.8 13.1 352 21.2
2010-04-29 07:24:56 51°21.954 2°50.52 1 13.3 352 21.3
2010-04-29 07:25:00 51°21.969 2°50.516 1 13.4 352 21.4
2010-04-29 07:25:06 51°21.991 2°50.511 0.7 13.5 351 21.4
2010-04-29 07:25:11 51°22.01 2°50.505 0.5 13.5 350 21.4
2010-04-29 07:25:16 51°22.028 2°50.496 357.2 13.5 343 21.6
2010-04-29 07:25:20 51°22.041 2°50.486 349.9 13.6 337 21.6
2010-04-29 07:25:26 51°22.062 2°50.47 343.4 13.6 334 21.6
2010-04-29 07:25:31 51°22.08 2°50.464 346.3 13.2 346 21.6
2010-04-29 07:25:36 51°22.097 2°50.462 354.5 12.9 353 21.5
2010-04-29 07:25:40 51°22.111 2°50.463 4 12.4 4 21.7
2010-04-29 07:25:45 51°22.127 2°50.47 13.9 12 14 21.8
2010-04-29 07:25:51 51°22.145 2°50.484 23.5 11.7 24 21.7
2010-04-29 07:25:56 51°22.157 2°50.5 33.6 11.3 36 22
2010-04-29 07:26:00 51°22.165 2°50.514 43.4 11.1 46 21.9
2010-04-29 07:26:05 51°22.174 2°50.535 52.8 11.1 55 21.9
2010-04-29 07:26:11 51°22.181 2°50.562 62 11.2 65 22
2010-04-29 07:26:16 51°22.188 2°50.585 66.9 11.4 65 21.8
2010-04-29 07:26:20 51°22.193 2°50.604 68.3 11.6 66 22.1
2010-04-29 07:26:26 51°22.202 2°50.631 65.9 11.8 61 22
2010-04-29 07:26:31 51°22.211 2°50.653 61.8 11.9 57 22.1
2010-04-29 07:26:36 51°22.22 2°50.676 60.6 12 58 21.9
2010-04-29 07:26:40 51°22.228 2°50.694 59.6 12.1 56 21.7
2010-04-29 07:26:46 51°22.239 2°50.721 59.7 12.1 59 21.9
2010-04-29 07:26:51 51°22.248 2°50.744 60.3 12.1 57 21.6
2010-04-29 07:26:56 51°22.257 2°50.766 59.9 12.2 57 21.6
2010-04-29 07:27:01 51°22.267 2°50.789 59 12.3 56 21.6
2010-04-29 07:27:06 51°22.276 2°50.812 59.6 12.2 58 21.6
2010-04-29 07:27:11 51°22.284 2°50.835 60.8 12.2 59 21.5
2010-04-29 07:27:16 51°22.293 2°50.859 60.9 12.2 58 21.6
2010-04-29 07:27:20 51°22.301 2°50.877 60.9 12.2 58 21.5
2010-04-29 07:27:26 51°22.313 2°50.903 60 12.2 55 21.6
2010-04-29 07:27:31 51°22.323 2°50.925 57.7 12.1 53 21.7
2010-04-29 07:27:36 51°22.334 2°50.944 55.2 12 48 21.6
2010-04-29 07:27:40 51°22.344 2°50.959 51.6 12 43 21.6
2010-04-29 07:27:46 51°22.361 2°50.977 45.1 12 35 21.9
2010-04-29 07:27:51 51°22.375 2°50.989 39.3 12.1 29 21.9
2010-04-29 07:27:56 51°22.391 2°51 35.1 12.1 25 21.8
2010-04-29 07:28:01 51°22.407 2°51.006 28.4 12.3 15 21.9
2010-04-29 07:28:06 51°22.424 2°51.01 22.2 12.3 10 21.6
2010-04-29 07:28:11 51°22.441 2°51.012 16.7 12.4 4 21.9
2010-04-29 07:28:16 51°22.459 2°51.009 9.4 12.6 356 21.8
2010-04-29 07:28:20 51°22.473 2°51.006 4.3 12.7 352 21.7
2010-04-29 07:28:26 51°22.494 2°51.003 3.7 12.8 356 21.7
2010-04-29 07:28:31 51°22.512 2°50.997 1.5 13.1 349 21.5
2010-04-29 07:28:36 51°22.53 2°50.994 359.6 13 352 21.2
2010-04-29 07:28:40 51°22.544 2°50.989 359.4 13.2 350 21.7
2010-04-29 07:28:45 51°22.562 2°50.986 0.5 13.1 353 21
2010-04-29 07:28:51 51°22.584 2°50.981 0.9 13.2 351 21.3
2010-04-29 07:28:56 51°22.602 2°50.977 0.6 13.2 352 21.8
2010-04-29 07:29:00 51°22.616 2°50.972 359.8 13.2 350 21.3
2010-04-29 07:29:06 51°22.638 2°50.967 359.3 13.3 350 21.5
2010-04-29 07:29:11 51°22.656 2°50.961 359.2 13.3 350 21.4
2010-04-29 07:29:16 51°22.674 2°50.957 359.3 13.2 351 21.6
2010-04-29 07:29:20 51°22.689 2°50.953 359.7 13.2 351 21.6
2010-04-29 07:29:26 51°22.71 2°50.948 0.1 13.1 351 21.1
2010-04-29 07:29:31 51°22.728 2°50.943 0.3 13.1 351 21.1
2010-04-29 07:29:36 51°22.746 2°50.939 0.3 13.1 351 20.8
2010-04-29 07:29:40 51°22.76 2°50.936 0.5 13 352 20.9
2010-04-29 07:29:46 51°22.781 2°50.932 0.8 12.8 353 20.7
2010-04-29 07:29:51 51°22.799 2°50.931 2.6 12.7 357 20.9
2010-04-29 07:29:56 51°22.816 2°50.934 6.9 12.3 5 20.3
2010-04-29 07:30:00 51°22.829 2°50.938 15.1 12.1 10 20.5
2010-04-29 07:30:05 51°22.845 2°50.943 17.3 12.1 10 20.2
2010-04-29 07:30:11 51°22.866 2°50.946 15.5 12.3 6 19.1
2010-04-29 07:30:16 51°22.883 2°50.95 14.9 12.3 9 18.3
2010-04-29 07:30:20 51°22.896 2°50.951 13.9 12.4 5 20.6
2010-04-29 07:30:26 51°22.917 2°50.956 13.6 12.4 7 20.3
2010-04-29 07:30:31 51°22.934 2°50.958 13.3 12.5 6 19.5
2010-04-29 07:30:36 51°22.951 2°50.962 13 12.5 7 18.3
2010-04-29 07:30:40 51°22.965 2°50.964 13.2 12.5 7 17.6
2010-04-29 07:30:45 51°22.982 2°50.968 13.9 12.4 8 16.2
2010-04-29 07:30:51 51°23.003 2°50.974 14.6 12.4 9 13.5
2010-04-29 07:30:56 51°23.019 2°50.978 15.1 12.3 10 15.4
2010-04-29 07:31:00 51°23.033 2°50.982 15.4 12.3 9 15.4
2010-04-29 07:31:06 51°23.053 2°50.987 15.2 12.3 10 15.2
2010-04-29 07:31:11 51°23.07 2°50.992 15.2 12.4 10 12.9
2010-04-29 07:31:16 51°23.087 2°50.996 14.9 12.3 9 13.9
2010-04-29 07:31:20 51°23.1 2°50.999 13.8 12.2 8 14.5
2010-04-29 07:31:26 51°23.121 2°51.003 13.2 12.2 7 14.6
2010-04-29 07:31:31 51°23.138 2°51.007 13.2 12.3 8 13.6
2010-04-29 07:31:36 51°23.155 2°51.01 13.2 12.3 8 12.2
2010-04-29 07:31:40 51°23.168 2°51.014 13.4 12.2 8 12.5
2010-04-29 07:31:46 51°23.188 2°51.019 14.2 12.1 9 13.4
2010-04-29 07:31:51 51°23.205 2°51.023 14.5 12.2 9 14.4
2010-04-29 07:31:56 51°23.221 2°51.027 14.8 12.3 10 14.3
2010-04-29 07:32:00 51°23.235 2°51.031 15.4 12.4 10 14.2
2010-04-29 07:32:05 51°23.252 2°51.036 15.6 12.3 10 13.7
2010-04-29 07:32:11 51°23.272 2°51.042 16 12.2 10 12.3
2010-04-29 07:32:16 51°23.288 2°51.045 14.7 12.2 8 12
2010-04-29 07:32:20 51°23.302 2°51.048 14.2 12.1 8 13.5
2010-04-29 07:32:26 51°23.322 2°51.053 14.2 12.2 9 14.3
2010-04-29 07:32:31 51°23.339 2°51.057 14.6 12.4 9 14.2
2010-04-29 07:32:36 51°23.355 2°51.062 14.8 12.4 9 14.5
2010-04-29 07:32:40 51°23.369 2°51.066 15.3 12.3 10 14.3
2010-04-29 07:32:45 51°23.385 2°51.071 15.8 12.3 10 14.2
2010-04-29 07:32:51 51°23.406 2°51.076 15.9 12.3 10 14.6
2010-04-29 07:32:56 51°23.422 2°51.081 15.8 12.3 9 14.7
2010-04-29 07:33:00 51°23.436 2°51.084 14.9 12.3 8 14.2
2010-04-29 07:33:06 51°23.456 2°51.088 14.4 12.3 8 12.2
2010-04-29 07:33:11 51°23.473 2°51.092 14.9 12.2 9 13.8
2010-04-29 07:33:16 51°23.49 2°51.096 14.8 12.2 8 14.2
2010-04-29 07:33:20 51°23.503 2°51.099 14.7 12.2 9 14.8
2010-04-29 07:33:26 51°23.523 2°51.104 14.9 12.3 8 15.5
2010-04-29 07:33:31 51°23.54 2°51.108 14.4 12.4 7 15.5
2010-04-29 07:33:36 51°23.558 2°51.11 13.5 12.4 6 15.3
2010-04-29 07:33:41 51°23.574 2°51.114 12.5 12.4 6 15.7
2010-04-29 07:33:46 51°23.592 2°51.117 13.1 12.3 7 15.9
2010-04-29 07:33:50 51°23.605 2°51.12 13.3 12.4 7 16.2
2010-04-29 07:33:56 51°23.626 2°51.124 13.8 12.4 8 16.1
2010-04-29 07:34:00 51°23.639 2°51.127 13.8 12.5 7 16.5
2010-04-29 07:34:06 51°23.66 2°51.132 13.9 12.4 8 16.5
2010-04-29 07:34:11 51°23.677 2°51.135 13.8 12.5 7 16.8
2010-04-29 07:34:16 51°23.694 2°51.138 13.4 12.5 7 16.7
2010-04-29 07:34:20 51°23.708 2°51.141 13.3 12.5 7 15.9
2010-04-29 07:34:26 51°23.728 2°51.144 13.2 12.4 6 16.6
2010-04-29 07:34:31 51°23.745 2°51.147 13 12.4 6 17.6
2010-04-29 07:34:36 51°23.762 2°51.15 13.1 12.4 6 17.9
2010-04-29 07:34:40 51°23.776 2°51.153 13.8 12.4 8 18.1
2010-04-29 07:34:45 51°23.793 2°51.156 13.5 12.5 6 18.1
2010-04-29 07:34:51 51°23.814 2°51.161 13.8 12.4 8 18.2
2010-04-29 07:34:56 51°23.831 2°51.164 13.8 12.4 6 18.2
2010-04-29 07:35:00 51°23.845 2°51.166 13.7 12.5 7 17.9
2010-04-29 07:35:06 51°23.865 2°51.17 13.2 12.5 7 17.9
2010-04-29 07:35:11 51°23.882 2°51.174 13.7 12.4 7 17.5
2010-04-29 07:35:16 51°23.899 2°51.178 14.1 12.3 8 17
2010-04-29 07:35:20 51°23.913 2°51.18 14.1 12.3 7 18.4
2010-04-29 07:35:26 51°23.933 2°51.184 13.8 12.4 7 19
2010-04-29 07:35:31 51°23.95 2°51.188 14 12.5 8 19.1
2010-04-29 07:35:36 51°23.967 2°51.192 13.9 12.5 7 19.2
2010-04-29 07:35:41 51°23.985 2°51.195 14.1 12.5 8 19.3
2010-04-29 07:35:46 51°24.002 2°51.199 13.8 12.5 7 19.1
2010-04-29 07:35:50 51°24.016 2°51.202 13.9 12.5 8 18
2010-04-29 07:35:56 51°24.036 2°51.206 14.1 12.5 8 18
2010-04-29 07:36:00 51°24.05 2°51.209 14.2 12.5 7 18.4
2010-04-29 07:36:06 51°24.071 2°51.213 13.8 12.5 7 19.2
2010-04-29 07:36:11 51°24.088 2°51.216 13.8 12.5 7 19.3
2010-04-29 07:36:16 51°24.105 2°51.219 13.8 12.6 6 17.6
2010-04-29 07:36:20 51°24.119 2°51.221 13.3 12.5 6 16.8
2010-04-29 07:36:26 51°24.14 2°51.225 13.3 12.4 5 18.5
2010-04-29 07:36:31 51°24.157 2°51.227 13 12.4 5 19.1
2010-04-29 07:36:36 51°24.174 2°51.23 13.8 12.5 7 19.3
2010-04-29 07:36:40 51°24.188 2°51.232 13.7 12.5 5 19.6
2010-04-29 07:36:45 51°24.205 2°51.235 13.9 12.4 6 19.9
2010-04-29 07:36:51 51°24.226 2°51.238 13.9 12.4 5 20.1
2010-04-29 07:36:56 51°24.243 2°51.242 14 12.4 7 20.3
2010-04-29 07:37:00 51°24.256 2°51.243 14.2 12.5 5 20.5
2010-04-29 07:37:06 51°24.277 2°51.247 13.9 12.5 6 20.4
2010-04-29 07:37:11 51°24.294 2°51.25 14.1 12.4 5 20.5
2010-04-29 07:37:16 51°24.312 2°51.253 14 12.5 6 20.6
2010-04-29 07:37:20 51°24.325 2°51.255 13.6 12.5 5 20.8
2010-04-29 07:37:26 51°24.346 2°51.258 13.7 12.5 5 20.9
2010-04-29 07:37:30 51°24.36 2°51.261 13.9 12.4 6 20.8
2010-04-29 07:37:36 51°24.381 2°51.264 14.1 12.4 6 21
2010-04-29 07:37:41 51°24.398 2°51.267 14.2 12.5 5 21
2010-04-29 07:37:46 51°24.415 2°51.27 14.5 12.5 7 20.9
2010-04-29 07:37:50 51°24.429 2°51.271 14.1 12.5 4 21
2010-04-29 07:37:56 51°24.449 2°51.275 14.3 12.4 7 21.1
2010-04-29 07:38:01 51°24.467 2°51.277 13.8 12.5 4 21
2010-04-29 07:38:06 51°24.484 2°51.281 13.9 12.4 7 21.1
2010-04-29 07:38:11 51°24.501 2°51.282 14 12.5 5 21
2010-04-29 07:38:16 51°24.518 2°51.285 14 12.4 6 21
2010-04-29 07:38:20 51°24.532 2°51.287 13.8 12.5 5 21
2010-04-29 07:38:26 51°24.552 2°51.29 14.2 12.5 6 20.9
2010-04-29 07:38:31 51°24.569 2°51.293 13.9 12.4 5 21
2010-04-29 07:38:36 51°24.587 2°51.296 14.3 12.4 6 21.1
2010-04-29 07:38:40 51°24.6 2°51.298 13.9 12.4 5 21
2010-04-29 07:38:46 51°24.621 2°51.302 13.9 12.4 7 21.1
2010-04-29 07:38:51 51°24.638 2°51.304 14.1 12.4 5 21.2
2010-04-29 07:38:56 51°24.655 2°51.308 13.9 12.4 6 21.4
2010-04-29 07:39:00 51°24.669 2°51.31 14.1 12.4 6 21.5
2010-04-29 07:39:06 51°24.689 2°51.313 14.4 12.4 7 21.5
2010-04-29 07:39:11 51°24.706 2°51.316 14.1 12.4 6 21.5
2010-04-29 07:39:16 51°24.723 2°51.319 14.5 12.4 7 21.7
2010-04-29 07:39:20 51°24.737 2°51.321 14.2 12.4 5 21.5
2010-04-29 07:39:26 51°24.757 2°51.325 14.5 12.4 7 21.6
2010-04-29 07:39:30 51°24.771 2°51.326 13.9 12.4 4 21.6
2010-04-29 07:39:36 51°24.791 2°51.331 14.5 12.3 8 21.7
2010-04-29 07:39:40 51°24.805 2°51.332 14.5 12.3 5 21.7
2010-04-29 07:39:46 51°24.825 2°51.336 14.4 12.3 7 21.6
2010-04-29 07:39:50 51°24.839 2°51.338 14.2 12.3 5 21.5
2010-04-29 07:39:56 51°24.859 2°51.342 14.4 12.3 7 21.6
2010-04-29 07:40:01 51°24.877 2°51.344 14.5 12.3 5 21.5
2010-04-29 07:40:06 51°24.894 2°51.347 14.4 12.4 6 21.6
2010-04-29 07:40:11 51°24.91 2°51.349 14.1 12.4 4 21.6
2010-04-29 07:40:16 51°24.927 2°51.353 14.5 12.3 7 21.7
2010-04-29 07:40:20 51°24.941 2°51.355 14.2 12.3 5 21.7
2010-04-29 07:40:26 51°24.961 2°51.359 14.6 12.3 7 21.7
2010-04-29 07:40:31 51°24.978 2°51.362 14.7 12.3 5 21.7
2010-04-29 07:40:36 51°24.995 2°51.365 14.4 12.3 6 21.8
2010-04-29 07:40:40 51°25.009 2°51.366 14.5 12.3 6 21.8
2010-04-29 07:40:46 51°25.029 2°51.37 14.3 12.3 6 21.8
2010-04-29 07:40:51 51°25.046 2°51.372 14.7 12.3 6 21.9
2010-04-29 07:40:56 51°25.063 2°51.376 14.1 12.2 6 21.8
2010-04-29 07:41:00 51°25.077 2°51.378 14.5 12.2 6 21.9
2010-04-29 07:41:06 51°25.097 2°51.381 14.1 12.3 7 22
2010-04-29 07:41:11 51°25.114 2°51.383 14.2 12.3 5 22
2010-04-29 07:41:16 51°25.131 2°51.386 13.8 12.3 5 22.1
2010-04-29 07:41:20 51°25.145 2°51.389 14.5 12.3 7 22.1
2010-04-29 07:41:26 51°25.165 2°51.391 13.9 12.4 4 22.1
2010-04-29 07:41:30 51°25.178 2°51.394 14.3 12.3 7 22.1
2010-04-29 07:41:36 51°25.199 2°51.396 13.9 12.4 4 21.8
2010-04-29 07:41:40 51°25.212 2°51.399 14.3 12.3 8 21.7
2010-04-29 07:41:46 51°25.233 2°51.401 14.2 12.4 4 21.8
2010-04-29 07:41:50 51°25.246 2°51.405 14.2 12.3 8 21.8
2010-04-29 07:41:56 51°25.267 2°51.407 14.7 12.3 5 21.9
2010-04-29 07:42:00 51°25.28 2°51.41 14.4 12.3 7 21.9
2010-04-29 07:42:05 51°25.297 2°51.413 14.7 12.3 6 22
2010-04-29 07:42:11 51°25.318 2°51.417 14.5 12.3 6 22
2010-04-29 07:42:16 51°25.335 2°51.419 14.6 12.3 7 22.2
2010-04-29 07:42:20 51°25.348 2°51.421 14.6 12.4 5 22.1
2010-04-29 07:42:26 51°25.369 2°51.425 14.7 12.3 7 22.2
2010-04-29 07:42:31 51°25.386 2°51.428 14.6 12.4 5 22.4
2010-04-29 07:42:36 51°25.403 2°51.431 14.6 12.4 7 22.4
2010-04-29 07:42:40 51°25.417 2°51.433 14.7 12.4 5 22.3
2010-04-29 07:42:46 51°25.437 2°51.437 14.5 12.4 7 22.3
2010-04-29 07:42:51 51°25.454 2°51.439 14.4 12.5 5 22.3
2010-04-29 07:42:56 51°25.471 2°51.443 14.1 12.4 7 22.2
2010-04-29 07:43:00 51°25.485 2°51.444 14.4 12.5 5 22.1
2010-04-29 07:43:06 51°25.506 2°51.448 13.9 12.4 6 22.2
2010-04-29 07:43:11 51°25.523 2°51.451 14.4 12.4 6 22.2
2010-04-29 07:43:16 51°25.54 2°51.454 14.3 12.4 5 22.1
2010-04-29 07:43:20 51°25.554 2°51.456 14.5 12.3 7 22.2
2010-04-29 07:43:26 51°25.574 2°51.459 14.4 12.4 5 22
2010-04-29 07:43:31 51°25.591 2°51.462 14.4 12.4 6 22.2
2010-04-29 07:43:36 51°25.609 2°51.465 14.3 12.5 6 22.2
2010-04-29 07:43:40 51°25.623 2°51.467 14.3 12.5 5 22.5
2010-04-29 07:43:45 51°25.64 2°51.47 14.2 12.4 6 22.5
2010-04-29 07:43:51 51°25.66 2°51.473 14.4 12.5 6 22.4
2010-04-29 07:43:56 51°25.677 2°51.477 14.3 12.5 6 22.5
2010-04-29 07:44:00 51°25.691 2°51.479 14.3 12.5 6 22.6
2010-04-29 07:44:05 51°25.708 2°51.481 13.8 12.5 5 22.6
2010-04-29 07:44:11 51°25.729 2°51.485 14.5 12.5 7 22.5
2010-04-29 07:44:16 51°25.747 2°51.488 14 12.5 5 22.5
2010-04-29 07:44:20 51°25.761 2°51.49 14 12.6 7 22.6
2010-04-29 07:44:26 51°25.781 2°51.493 13.9 12.6 4 22.7
2010-04-29 07:44:31 51°25.798 2°51.497 14.1 12.5 8 22.7
2010-04-29 07:44:36 51°25.816 2°51.499 14.3 12.6 5 22.9
2010-04-29 07:44:40 51°25.83 2°51.502 14.1 12.6 7 23
2010-04-29 07:44:46 51°25.851 2°51.505 14.2 12.6 6 23.2
2010-04-29 07:44:51 51°25.868 2°51.508 13.9 12.6 6 23.4
2010-04-29 07:44:56 51°25.885 2°51.511 14 12.6 6 23.8
2010-04-29 07:45:00 51°25.899 2°51.513 14.2 12.6 6 24.2
2010-04-29 07:45:06 51°25.92 2°51.518 14.6 12.6 7 24.6
2010-04-29 07:45:11 51°25.938 2°51.52 14.2 12.7 5 24.8
2010-04-29 07:45:16 51°25.955 2°51.524 14.6 12.6 8 25.2
2010-04-29 07:45:20 51°25.969 2°51.527 14.7 12.6 7 26.1
2010-04-29 07:45:26 51°25.99 2°51.531 14.6 12.6 8 26.7
2010-04-29 07:45:31 51°26.007 2°51.535 14.7 12.6 9 27
2010-04-29 07:45:36 51°26.025 2°51.539 15.1 12.7 8 27.8
2010-04-29 07:45:40 51°26.038 2°51.543 15 12.7 9 28.5
2010-04-29 07:45:45 51°26.056 2°51.547 15.1 12.7 8 29
2010-04-29 07:45:51 51°26.077 2°51.551 14.7 12.7 8 29.2
2010-04-29 07:45:56 51°26.094 2°51.555 14.7 12.8 8 29.2
2010-04-29 07:46:00 51°26.109 2°51.558 14.1 12.8 7 29.4
2010-04-29 07:46:05 51°26.126 2°51.562 14.1 12.8 8 29.2
2010-04-29 07:46:11 51°26.147 2°51.567 14.3 12.8 8 28.9
2010-04-29 07:46:16 51°26.165 2°51.57 14.3 12.8 8 28.5
2010-04-29 07:46:20 51°26.179 2°51.573 14.4 12.8 8 28.1
2010-04-29 07:46:26 51°26.2 2°51.578 14.4 12.8 8 27.5
2010-04-29 07:46:31 51°26.218 2°51.582 14.5 12.9 8 26.7
2010-04-29 07:46:36 51°26.236 2°51.585 13.9 12.9 6 26
2010-04-29 07:46:40 51°26.25 2°51.588 14 12.9 8 25.2
2010-04-29 07:46:45 51°26.268 2°51.591 13.8 12.8 6 24.7
2010-04-29 07:46:51 51°26.288 2°51.595 13.8 12.7 7 24.5
2010-04-29 07:46:56 51°26.306 2°51.598 14.1 12.8 7 24.7
2010-04-29 07:47:00 51°26.32 2°51.601 13.9 12.7 6 26
2010-04-29 07:47:06 51°26.341 2°51.605 14.1 12.8 7 26.5
2010-04-29 07:47:11 51°26.359 2°51.608 14 12.8 6 25.6
2010-04-29 07:47:16 51°26.376 2°51.611 13.9 12.8 7 24.8
2010-04-29 07:47:20 51°26.391 2°51.614 14.4 12.8 7 25.1
2010-04-29 07:47:26 51°26.412 2°51.618 14 12.8 6 25.2
2010-04-29 07:47:31 51°26.429 2°51.621 14 12.8 7 25.1
2010-04-29 07:47:36 51°26.447 2°51.624 13.9 12.8 6 24.9
2010-04-29 07:47:40 51°26.461 2°51.627 13.8 12.7 7 24.6
2010-04-29 07:47:46 51°26.482 2°51.631 13.9 12.7 6 24.4
2010-04-29 07:47:51 51°26.499 2°51.634 13.8 12.7 6 24.3
2010-04-29 07:47:56 51°26.517 2°51.637 13.8 12.7 6 24.7
2010-04-29 07:48:00 51°26.531 2°51.639 13.9 12.7 6 24.9
2010-04-29 07:48:05 51°26.548 2°51.642 14 12.7 6 24.9
2010-04-29 07:48:11 51°26.569 2°51.646 13.9 12.7 7 25
2010-04-29 07:48:16 51°26.587 2°51.649 14.1 12.7 6 24.8
2010-04-29 07:48:20 51°26.601 2°51.652 14.1 12.7 7 24.9
2010-04-29 07:48:26 51°26.622 2°51.655 14.2 12.7 6 24.5
2010-04-29 07:48:31 51°26.639 2°51.658 14.2 12.7 6 24.3
2010-04-29 07:48:36 51°26.657 2°51.661 14 12.7 5 24.2
2010-04-29 07:48:40 51°26.671 2°51.664 14.2 12.6 7 24
2010-04-29 07:48:45 51°26.688 2°51.666 14.4 12.7 6 24.3
2010-04-29 07:48:51 51°26.709 2°51.67 14.4 12.7 7 24
2010-04-29 07:48:56 51°26.727 2°51.673 14.5 12.7 6 24.2
2010-04-29 07:49:00 51°26.741 2°51.676 14.6 12.7 6 24.3
2010-04-29 07:49:05 51°26.758 2°51.679 14.5 12.7 6 24.5
2010-04-29 07:49:11 51°26.779 2°51.682 14.4 12.7 6 24.2
2010-04-29 07:49:16 51°26.797 2°51.685 14.6 12.7 6 24.1
2010-04-29 07:49:21 51°26.814 2°51.688 14.5 12.7 6 24.2
2010-04-29 07:49:26 51°26.832 2°51.691 14.5 12.7 6 23.9
2010-04-29 07:49:30 51°26.846 2°51.693 14.2 12.7 5 24.1
2010-04-29 07:49:36 51°26.867 2°51.697 14.3 12.7 7 24.3
2010-04-29 07:49:40 51°26.881 2°51.699 14.4 12.8 6 23.5
2010-04-29 07:49:46 51°26.902 2°51.703 14.5 12.7 7 21.5
2010-04-29 07:49:51 51°26.919 2°51.706 14.3 12.7 6 20.7
2010-04-29 07:49:56 51°26.937 2°51.709 14.4 12.7 6 22.8
2010-04-29 07:50:00 51°26.951 2°51.711 14.5 12.6 7 23.4
2010-04-29 07:50:06 51°26.971 2°51.716 14.6 12.6 7 22.4
2010-04-29 07:50:11 51°26.989 2°51.719 14.6 12.6 7 20.9
2010-04-29 07:50:16 51°27.006 2°51.723 14.4 12.4 7 22.3
2010-04-29 07:50:20 51°27.02 2°51.725 14.7 12.4 7 21.6
2010-04-29 07:50:25 51°27.037 2°51.729 14.6 12.5 8 19.9
2010-04-29 07:50:31 51°27.057 2°51.732 14.7 12.4 6 18.8
2010-04-29 07:50:36 51°27.074 2°51.736 14.6 12.2 8 19.7
2010-04-29 07:50:40 51°27.087 2°51.738 14.5 12.3 6 18.7
2010-04-29 07:50:45 51°27.104 2°51.741 14.2 12.2 6 18.5
2010-04-29 07:50:51 51°27.125 2°51.744 13.9 12.3 6 20.3
2010-04-29 07:50:56 51°27.141 2°51.748 13.7 12.2 6 20.9
2010-04-29 07:51:00 51°27.155 2°51.751 14.2 12.2 8 20.6
2010-04-29 07:51:05 51°27.172 2°51.753 14.2 12.3 5 19.9
2010-04-29 07:51:11 51°27.192 2°51.758 14.4 12.2 8 19.4
2010-04-29 07:51:16 51°27.209 2°51.759 13.9 12.3 4 19.4
2010-04-29 07:51:20 51°27.223 2°51.762 13.8 12.2 7 21.3
2010-04-29 07:51:26 51°27.243 2°51.766 13.9 12.3 6 21.1
2010-04-29 07:51:31 51°27.26 2°51.77 14.1 12.3 8 21.2
2010-04-29 07:51:36 51°27.276 2°51.773 14.6 12.3 7 21
2010-04-29 07:51:40 51°27.29 2°51.777 16.4 12.2 11 20.4
2010-04-29 07:51:46 51°27.309 2°51.783 17 12.1 11 21.1
2010-04-29 07:51:51 51°27.326 2°51.788 17.9 12.1 12 21.2
2010-04-29 07:51:56 51°27.342 2°51.795 19.7 12.1 14 20.6
2010-04-29 07:52:00 51°27.355 2°51.8 20.2 12 14 20.2
2010-04-29 07:52:06 51°27.374 2°51.809 21.2 12 17 20.2
2010-04-29 07:52:11 51°27.39 2°51.817 22.1 12 17 18.5
2010-04-29 07:52:16 51°27.406 2°51.826 23.7 11.9 19 19.4
2010-04-29 07:52:20 51°27.418 2°51.832 24.4 11.9 18 19.8
2010-04-29 07:52:25 51°27.434 2°51.843 25.5 11.9 22 19.5
2010-04-29 07:52:31 51°27.452 2°51.854 25.8 11.9 21 19.3
2010-04-29 07:52:36 51°27.467 2°51.864 26.9 11.9 23 19.5
2010-04-29 07:52:40 51°27.48 2°51.871 27.2 11.9 21 19.2
2010-04-29 07:52:45 51°27.495 2°51.882 27.7 11.9 23 19.2
2010-04-29 07:52:51 51°27.513 2°51.893 27.6 11.9 21 17.8
2010-04-29 07:52:56 51°27.528 2°51.903 27.4 11.8 22 18.4
2010-04-29 07:53:00 51°27.54 2°51.911 27.3 11.8 22 19
2010-04-29 07:53:05 51°27.556 2°51.921 27.4 11.8 23 19.4
2010-04-29 07:53:11 51°27.574 2°51.932 27.7 11.9 22 19.6
2010-04-29 07:53:16 51°27.589 2°51.942 27.7 11.9 22 19.2
2010-04-29 07:53:20 51°27.602 2°51.95 27.3 11.9 21 18.3
2010-04-29 07:53:26 51°27.62 2°51.961 27.2 11.9 22 18.2
2010-04-29 07:53:31 51°27.635 2°51.971 26.9 11.9 20 18
2010-04-29 07:53:36 51°27.651 2°51.981 26.7 11.8 22 19.5
2010-04-29 07:53:40 51°27.663 2°51.989 27 11.9 21 19.9
2010-04-29 07:53:46 51°27.681 2°52.001 27 11.9 22 20.3
2010-04-29 07:53:51 51°27.697 2°52.011 27.4 11.9 22 19.8
2010-04-29 07:53:56 51°27.712 2°52.02 26.9 11.9 21 18.2
2010-04-29 07:54:01 51°27.727 2°52.03 26.9 11.9 22 18.8
2010-04-29 07:54:06 51°27.743 2°52.04 26.9 11.9 21 19.5
2010-04-29 07:54:11 51°27.758 2°52.05 27.1 11.9 22 20.1
2010-04-29 07:54:16 51°27.773 2°52.059 27.3 11.9 22 20.7
2010-04-29 07:54:20 51°27.786 2°52.067 27 11.9 22 20.6
2010-04-29 07:54:26 51°27.804 2°52.079 27 12 21 21.4
2010-04-29 07:54:31 51°27.819 2°52.087 26.7 12 21 21.1
2010-04-29 07:54:36 51°27.835 2°52.097 26.6 12 21 18.3
2010-04-29 07:54:40 51°27.847 2°52.105 26.7 12 21 19.8
2010-04-29 07:54:45 51°27.863 2°52.115 26.7 11.9 21 21
2010-04-29 07:54:51 51°27.882 2°52.126 26.5 12 21 21.4
2010-04-29 07:54:56 51°27.897 2°52.135 26.4 12 21 20.1
2010-04-29 07:55:00 51°27.91 2°52.143 26.4 12 21 20.9
2010-04-29 07:55:05 51°27.925 2°52.153 26.6 12 21 21.9
2010-04-29 07:55:11 51°27.944 2°52.165 26.3 12 21 21.9
2010-04-29 07:55:16 51°27.959 2°52.175 26.5 12 21 19.9
2010-04-29 07:55:20 51°27.972 2°52.182 26.5 12 21 20.3
2010-04-29 07:55:25 51°27.987 2°52.192 26.5 12 21 20.9
2010-04-29 07:55:31 51°28.006 2°52.203 26.5 12 21 21.8
2010-04-29 07:55:36 51°28.021 2°52.213 26.6 12 21 22.2
2010-04-29 07:55:40 51°28.034 2°52.221 26.7 12 22 21.6
2010-04-29 07:55:46 51°28.053 2°52.233 26.6 12 20 21
2010-04-29 07:55:51 51°28.068 2°52.242 26.3 12 21 21.6
2010-04-29 07:55:56 51°28.084 2°52.252 26.6 12.1 21 22.4
2010-04-29 07:56:01 51°28.099 2°52.262 26.5 12.1 21 22.7
2010-04-29 07:56:06 51°28.115 2°52.272 26.8 12.1 22 22.9
2010-04-29 07:56:11 51°28.131 2°52.281 26.5 12.1 20 21.7
2010-04-29 07:56:16 51°28.146 2°52.291 26.5 12.1 21 21.4
2010-04-29 07:56:20 51°28.159 2°52.298 26.6 12.1 20 22.1
2010-04-29 07:56:26 51°28.178 2°52.31 26.6 12.1 22 21.7
2010-04-29 07:56:31 51°28.194 2°52.319 26.9 12.2 20 22.7
2010-04-29 07:56:36 51°28.209 2°52.329 26.5 12.2 21 22.7
2010-04-29 07:56:40 51°28.222 2°52.337 26.5 12.2 21 22.7
2010-04-29 07:56:46 51°28.241 2°52.349 26.5 12.2 20 22.6
2010-04-29 07:56:51 51°28.257 2°52.358 26.3 12.2 21 22.9
2010-04-29 07:56:56 51°28.272 2°52.368 26.5 12.2 21 23
2010-04-29 07:57:00 51°28.285 2°52.375 26.7 12.2 21 23.1
2010-04-29 07:57:05 51°28.301 2°52.385 26.2 12.1 21 23
2010-04-29 07:57:11 51°28.319 2°52.395 26.8 12.2 21 23.4
2010-04-29 07:57:16 51°28.335 2°52.404 26.5 12.3 20 23.7
2010-04-29 07:57:20 51°28.348 2°52.412 26.1 12.1 21 23.7
2010-04-29 07:57:26 51°28.367 2°52.424 26.7 12.3 21 23.8
2010-04-29 07:57:31 51°28.383 2°52.434 26.2 12.2 19 23.9
2010-04-29 07:57:36 51°28.398 2°52.444 26.6 12.1 22 24.1
2010-04-29 07:57:40 51°28.411 2°52.451 26.3 12.3 19 24.5
2010-04-29 07:57:45 51°28.427 2°52.461 26.1 12.2 22 24.5
2010-04-29 07:57:51 51°28.446 2°52.473 26.2 12.2 20 24.8
2010-04-29 07:57:56 51°28.462 2°52.482 25.9 12.2 20 24.7
2010-04-29 07:58:00 51°28.475 2°52.49 25.9 12.2 21 24.7
2010-04-29 07:58:05 51°28.491 2°52.499 26 12.3 20 24.7
2010-04-29 07:58:11 51°28.51 2°52.51 26 12.3 20 24.9
2010-04-29 07:58:16 51°28.526 2°52.52 26.1 12.2 20 25.1
2010-04-29 07:58:20 51°28.539 2°52.527 26.2 12.3 21 25.4
2010-04-29 07:58:26 51°28.558 2°52.539 26.2 12.3 20 25.5
2010-04-29 07:58:31 51°28.574 2°52.548 26.5 12.2 21 25.6
2010-04-29 07:58:36 51°28.59 2°52.557 26.5 12.3 21 25.7
2010-04-29 07:58:40 51°28.602 2°52.566 26.6 12.3 22 25.7
2010-04-29 07:58:46 51°28.622 2°52.578 26.8 12.3 21 25.9
2010-04-29 07:58:51 51°28.638 2°52.588 26.7 12.3 22 25.9
2010-04-29 07:58:56 51°28.653 2°52.597 26.5 12.3 21 26
2010-04-29 07:59:00 51°28.666 2°52.605 26.4 12.3 21 26
2010-04-29 07:59:05 51°28.682 2°52.615 26.2 12.3 20 26.2
2010-04-29 07:59:11 51°28.701 2°52.627 26.2 12.3 21 26.2
2010-04-29 07:59:16 51°28.717 2°52.636 26.8 12.3 21 26.2
2010-04-29 07:59:20 51°28.73 2°52.644 26.2 12.3 20 26.1
2010-04-29 07:59:26 51°28.749 2°52.656 26.5 12.3 22 26.1
2010-04-29 07:59:31 51°28.765 2°52.665 26.5 12.3 20 26.1
2010-04-29 07:59:36 51°28.781 2°52.675 26.2 12.3 21 26.1
2010-04-29 07:59:40 51°28.794 2°52.683 26.4 12.3 20 26.2
2010-04-29 07:59:45 51°28.81 2°52.692 26.2 12.3 20 26.3
2010-04-29 07:59:51 51°28.829 2°52.703 26.2 12.3 21 26.3
2010-04-29 07:59:56 51°28.845 2°52.712 26 12.3 19 26.2
2010-04-29 08:00:01 51°28.861 2°52.722 25.9 12.3 20 26.2
2010-04-29 08:00:05 51°28.874 2°52.729 26.2 12.4 19 26.1
2010-04-29 08:00:11 51°28.894 2°52.74 25.8 12.3 19 26
2010-04-29 08:00:16 51°28.91 2°52.749 25.8 12.3 20 26.1
2010-04-29 08:00:20 51°28.923 2°52.756 25.8 12.3 19 26.2
2010-04-29 08:00:25 51°28.939 2°52.764 25.8 12.3 19 26.1
2010-04-29 08:00:31 51°28.958 2°52.776 26.2 12.3 20 26.1
2010-04-29 08:00:36 51°28.974 2°52.785 26.2 12.4 20 26
2010-04-29 08:00:41 51°28.99 2°52.794 26 12.2 19 26.1
2010-04-29 08:00:46 51°29.006 2°52.804 26.5 12.2 21 26.3
2010-04-29 08:00:51 51°29.022 2°52.813 27 12.4 20 26.3
2010-04-29 08:00:56 51°29.038 2°52.822 26.2 12.2 20 26.1
2010-04-29 08:01:00 51°29.05 2°52.83 26.9 12.2 22 25.8